»·PEaware :: DCM180 KSLC-KDEN

DCM180 :: KSLC-KDEN

FLIGHT INFORMATION

Flight Status: Arrived
Operator:
DotCom
More flights by this operator :: More flights under this callsign
Pilot: Etienne B. (28927)
Aircraft: AIRBUS A320
(A320)
More flights by this aircraft type
Origin: KSLC Salt Lake City Intl
United States
Destination: KDEN Denver Intl
United States
More flights between these airports :: More routes between these airports
Route: +RUGGD1 PERTY KAMPR LONGZ1
File this flight plan on PilotEdge
Remarks: RMK / SIMBRIEF
Altitude:
(Current/Filed)
33,000ft
Speed:
(Current/Filed)
420kts
Departed: 07-May-20 04:00 PM
Arrived: 07-May-20 04:57 PM
Distance/Time
Traveled:
339nm/0:57
Distance/Time
To Go:
Arrived

Flight Plot

Page will automatically refresh every two minutes.

Flight plan parsing failed; only flown route is shown


Map Options




Map Legend


Flown Route
Filed Route
Departure Airport
Arrival Airport
Navaid (VOR, NDB)
Fix

Horizontal Profiles

Position Reports

Time Latitude Longitude Heading Altitude Ground
Speed
07-May-20 15:33 40.788271 -111.982055 103 4236ft 0kts
07-May-20 15:34 40.788271 -111.982055 103 4236ft 0kts
07-May-20 15:35 40.788271 -111.982055 103 4236ft 0kts
07-May-20 15:36 40.788271 -111.982055 103 4236ft 0kts
07-May-20 15:37 40.788271 -111.982055 103 4236ft 0kts
07-May-20 15:38 40.788271 -111.982055 103 4236ft 0kts
07-May-20 15:39 40.788271 -111.982055 103 4236ft 0kts
07-May-20 15:40 40.788271 -111.982055 103 4236ft 0kts
07-May-20 15:41 40.788271 -111.982055 103 4236ft 0kts
07-May-20 15:42 40.788271 -111.982055 103 4236ft 0kts
07-May-20 15:43 40.788300 -111.982222 102 4236ft 2kts
07-May-20 15:44 40.788165 -111.982862 35 4236ft 2kts
07-May-20 15:45 40.787921 -111.982975 5 4236ft 0kts
07-May-20 15:46 40.787921 -111.982975 5 4236ft 0kts
07-May-20 15:47 40.788011 -111.982963 5 4236ft 4kts
07-May-20 15:48 40.790684 -111.982928 354 4236ft 0kts
07-May-20 15:49 40.790688 -111.982928 354 4236ft 0kts
07-May-20 15:50 40.791695 -111.982669 66 4236ft 11kts
07-May-20 15:51 40.791439 -111.977267 175 4236ft 8kts
07-May-20 15:52 40.787160 -111.976756 175 4236ft 17kts
07-May-20 15:53 40.782740 -111.976238 174 4236ft 14kts
07-May-20 15:54 40.778468 -111.975245 169 4236ft 19kts
07-May-20 15:55 40.774783 -111.974783 149 4236ft 0kts
07-May-20 15:56 40.774783 -111.974783 149 4236ft 0kts
07-May-20 15:57 40.774783 -111.974783 149 4236ft 0kts
07-May-20 15:58 40.775440 -111.973205 355 4236ft 12kts
07-May-20 15:59 40.808490 -111.977178 354 5142ft 176kts
07-May-20 16:00 40.853079 -112.004864 306 7770ft 198kts
07-May-20 16:01 40.885272 -112.071333 301 10019ft 245kts
07-May-20 16:02 40.948382 -112.094649 27 12311ft 292kts
07-May-20 16:03 41.019988 -112.030419 32 14419ft 332kts
07-May-20 16:04 41.079203 -111.926050 61 15480ft 392kts
07-May-20 16:05 41.119292 -111.788822 85 17284ft 416kts
07-May-20 16:06 41.064331 -111.651367 128 18835ft 444kts
07-May-20 16:07 40.985238 -111.522787 128 20304ft 458kts
07-May-20 16:09 40.888020 -111.218585 97 22869ft 477kts
07-May-20 16:10 40.867264 -111.043915 97 23948ft 489kts
07-May-20 16:11 40.845463 -110.863782 96 24825ft 503kts
07-May-20 16:12 40.822857 -110.679466 96 25818ft 513kts
07-May-20 16:13 40.799605 -110.492463 96 26737ft 522kts
07-May-20 16:14 40.775584 -110.301930 97 27624ft 529kts
07-May-20 16:15 40.751034 -110.109803 97 28674ft 531kts
07-May-20 16:16 40.734382 -109.917219 92 29728ft 531kts
07-May-20 16:17 40.721214 -109.723144 92 30786ft 532kts
07-May-20 16:18 40.707725 -109.528981 92 31822ft 533kts
07-May-20 16:19 40.693852 -109.334040 93 32804ft 534kts
07-May-20 16:20 40.679660 -109.139314 93 33203ft 534kts
07-May-20 16:21 40.666199 -108.944647 91 33205ft 536kts
07-May-20 16:22 40.653634 -108.748889 91 33211ft 536kts
07-May-20 16:23 40.640619 -108.553192 91 33242ft 536kts
07-May-20 16:24 40.627267 -108.357519 91 33264ft 536kts
07-May-20 16:25 40.613607 -108.162246 92 33258ft 535kts
07-May-20 16:26 40.599644 -107.967420 92 33272ft 535kts
07-May-20 16:27 40.585356 -107.772692 92 33284ft 536kts
07-May-20 16:28 40.570808 -107.577954 92 33296ft 536kts
07-May-20 16:29 40.555921 -107.382440 92 33303ft 536kts
07-May-20 16:30 40.540771 -107.187520 93 33285ft 536kts
07-May-20 16:31 40.525314 -106.992973 92 32909ft 535kts
07-May-20 16:32 40.509443 -106.797470 93 31925ft 543kts
07-May-20 16:33 40.493052 -106.599845 93 30973ft 542kts
07-May-20 16:34 40.475937 -106.403592 94 30028ft 542kts
07-May-20 16:35 40.458196 -106.208087 94 27439ft 542kts
07-May-20 16:36 40.440691 -106.010594 94 24258ft 541kts
07-May-20 16:37 40.418792 -105.821140 100 23071ft 515kts
07-May-20 16:38 40.389187 -105.639223 100 22302ft 489kts
07-May-20 16:40 40.362727 -105.474203 100 21651ft 439kts
07-May-20 16:41 40.325718 -105.330951 130 20705ft 403kts
07-May-20 16:42 40.257495 -105.217674 130 19157ft 389kts
07-May-20 16:43 40.192062 -105.107741 130 17608ft 377kts
07-May-20 16:44 40.133377 -104.995726 113 15931ft 371kts
07-May-20 16:45 40.091775 -104.874420 110 14494ft 360kts
07-May-20 16:46 40.059533 -104.752950 105 13080ft 349kts
07-May-20 16:47 40.030054 -104.639691 105 11977ft 307kts
07-May-20 16:48 40.003139 -104.538609 105 10540ft 285kts
07-May-20 16:49 39.975736 -104.443382 127 9104ft 292kts
07-May-20 16:50 39.910400 -104.403315 178 9042ft 253kts
07-May-20 16:51 39.847195 -104.411115 249 9047ft 209kts
07-May-20 16:52 39.839507 -104.470958 279 8671ft 140kts
07-May-20 16:53 39.839730 -104.521764 278 7856ft 142kts
07-May-20 16:54 39.839929 -104.564118 278 7244ft 139kts
07-May-20 16:55 39.839155 -104.612824 274 6571ft 142kts
07-May-20 16:55 39.840092 -104.656497 280 5891ft 138kts
07-May-20 16:57 39.840843 -104.697895 269 5443ft 23kts
07-May-20 16:57 39.840822 -104.704322 273 5443ft 21kts
07-May-20 16:58 39.840896 -104.711691 273 5443ft 20kts
07-May-20 17:00 39.842528 -104.714592 90 5443ft 10kts
07-May-20 17:00 39.842505 -104.710271 88 5443ft 25kts
07-May-20 17:01 39.842472 -104.702188 89 5443ft 22kts
07-May-20 17:02 39.842404 -104.694975 89 5443ft 17kts
07-May-20 17:03 39.842341 -104.689234 90 5443ft 14kts
07-May-20 17:04 39.842348 -104.684553 71 5443ft 11kts
07-May-20 17:05 39.846720 -104.684122 1 5443ft 22kts
07-May-20 17:06 39.851927 -104.683850 66 5443ft 9kts
07-May-20 17:07 39.852445 -104.678127 87 5443ft 25kts
07-May-20 17:08 39.852988 -104.676140 1 5443ft 3kts
07-May-20 17:09 39.853358 -104.676132 0 5443ft 0kts

Navigation Log

Ident Type
Flight plan parsing failed, navigation log unavailable